Time,TemperatureF,DewpointF,PressureIn,WindDirection,WindDirectionDegrees,WindSpeedMPH,WindSpeedGustMPH,Humidity,HourlyPrecipIn,Conditions,Clouds,dailyrainin,SoftwareType,DateUTC
2013-04-16 00:01:00,56.3,51.0,30.14,ESE,115,0.0,1.0,81,0.00,,,0.03,weatherlink.com 1.10,2013-04-16 04:01:00,
2013-04-16 00:16:00,55.2,51.0,30.15,ESE,114,0.0,1.0,84,0.00,,,0.03,weatherlink.com 1.10,2013-04-16 04:16:00,
2013-04-16 00:31:00,55.1,50.0,30.15,ESE,113,0.0,1.0,84,0.00,,,0.03,weatherlink.com 1.10,2013-04-16 04:31:00,
2013-04-16 00:46:00,55.0,50.0,30.15,ESE,113,0.0,1.0,84,0.00,,,0.03,weatherlink.com 1.10,2013-04-16 04:46:00,
2013-04-16 01:01:00,54.9,50.0,30.15,ESE,103,0.0,1.0,84,0.00,,,0.03,weatherlink.com 1.10,2013-04-16 05:01:00,
2013-04-16 01:16:00,54.3,50.0,30.14,NNE,33,0.0,1.0,86,0.00,,,0.03,weatherlink.com 1.10,2013-04-16 05:16:00,
2013-04-16 01:31:00,54.1,50.0,30.14,NE,34,0.0,1.0,85,0.00,,,0.03,weatherlink.com 1.10,2013-04-16 05:31:00,
2013-04-16 01:46:00,54.0,50.0,30.14,NE,34,0.0,1.0,86,0.00,,,0.03,weatherlink.com 1.10,2013-04-16 05:46:00,
2013-04-16 02:01:00,53.1,50.0,30.14,NE,34,0.0,1.0,88,0.00,,,0.03,weatherlink.com 1.10,2013-04-16 06:01:00,
2013-04-16 02:16:00,53.0,50.0,30.14,NNE,33,0.0,0.0,88,0.00,,,0.03,weatherlink.com 1.10,2013-04-16 06:16:00,
2013-04-16 02:31:00,52.2,49.0,30.13,NNE,33,0.0,0.0,89,0.00,,,0.03,weatherlink.com 1.10,2013-04-16 06:31:00,
2013-04-16 02:47:00,51.2,49.0,30.13,NNE,33,0.0,1.0,91,0.00,,,0.03,weatherlink.com 1.10,2013-04-16 06:47:00,
2013-04-16 03:17:00,51.8,49.0,30.12,NNE,32,0.0,1.0,90,0.00,,,0.03,weatherlink.com 1.10,2013-04-16 07:17:00,
2013-04-16 03:32:00,52.4,50.0,30.12,NNE,30,0.0,1.0,90,0.00,,,0.00,weatherlink.com 1.10,2013-04-16 07:32:00,
2013-04-16 03:47:00,52.4,49.0,30.13,NE,34,0.0,1.0,88,0.00,,,0.00,weatherlink.com 1.10,2013-04-16 07:47:00,
2013-04-16 04:02:00,51.4,49.0,30.13,SSE,155,0.0,1.0,90,0.00,,,0.00,weatherlink.com 1.10,2013-04-16 08:02:00,
2013-04-16 04:17:00,50.9,49.0,30.13,SE,146,1.0,1.0,92,0.00,,,0.00,weatherlink.com 1.10,2013-04-16 08:17:00,
2013-04-16 04:32:00,51.6,49.0,30.13,SE,136,0.0,1.0,92,0.00,,,0.00,weatherlink.com 1.10,2013-04-16 08:32:00,
2013-04-16 04:47:00,52.3,50.0,30.13,North,356,0.0,1.0,90,0.00,,,0.00,weatherlink.com 1.10,2013-04-16 08:47:00,
2013-04-16 05:02:00,52.4,49.0,30.13,SE,141,0.0,1.0,89,0.00,,,0.00,weatherlink.com 1.10,2013-04-16 09:02:00,
2013-04-16 05:17:00,52.2,50.0,30.14,ENE,64,0.0,1.0,91,0.00,,,0.00,weatherlink.com 1.10,2013-04-16 09:17:00,
2013-04-16 05:32:00,52.7,50.0,30.14,NNE,28,0.0,1.0,90,0.00,,,0.00,weatherlink.com 1.10,2013-04-16 09:32:00,
2013-04-16 05:47:00,52.8,50.0,30.15,NE,46,0.0,2.0,90,0.00,,,0.00,weatherlink.com 1.10,2013-04-16 09:47:00,
2013-04-16 06:02:00,53.0,50.0,30.15,NNE,27,0.0,2.0,90,0.00,,,0.00,weatherlink.com 1.10,2013-04-16 10:02:00,
2013-04-16 06:17:00,52.5,50.0,30.16,NNE,25,1.0,1.0,92,0.00,,,0.00,weatherlink.com 1.10,2013-04-16 10:17:00,
2013-04-16 06:47:00,53.7,51.0,30.18,NNE,18,0.0,1.0,90,0.00,,,0.00,weatherlink.com 1.10,2013-04-16 10:47:00,
2013-04-16 07:02:00,54.6,52.0,30.18,NNE,18,0.0,1.0,89,0.00,,,0.00,weatherlink.com 1.10,2013-04-16 11:02:00,
2013-04-16 07:17:00,53.8,50.0,30.19,NNE,19,0.0,1.0,88,0.00,,,0.00,weatherlink.com 1.10,2013-04-16 11:17:00,
2013-04-16 07:32:00,53.6,51.0,30.20,NNE,27,0.0,1.0,90,0.00,,,0.00,weatherlink.com 1.10,2013-04-16 11:32:00,
2013-04-16 07:47:00,53.9,51.0,30.21,NNE,13,0.0,1.0,91,0.00,,,0.00,weatherlink.com 1.10,2013-04-16 11:47:00,
2013-04-16 08:02:00,54.3,52.0,30.22,South,191,1.0,2.0,90,0.00,,,0.00,weatherlink.com 1.10,2013-04-16 12:02:00,
2013-04-16 08:17:00,55.1,52.0,30.23,SSW,192,0.0,1.0,90,0.00,,,0.00,weatherlink.com 1.10,2013-04-16 12:17:00,
2013-04-16 08:32:00,57.2,53.0,30.23,SE,145,0.0,1.0,87,0.00,,,0.00,weatherlink.com 1.10,2013-04-16 12:32:00,
2013-04-16 08:47:00,59.4,54.0,30.24,SSE,151,0.0,1.0,83,0.00,,,0.00,weatherlink.com 1.10,2013-04-16 12:47:00,
2013-04-16 09:02:00,61.2,55.0,30.24,SSE,168,1.0,2.0,80,0.00,,,0.00,weatherlink.com 1.10,2013-04-16 13:02:00,
2013-04-16 09:18:00,62.7,55.0,30.25,SSE,164,3.0,4.0,75,0.00,,,0.00,weatherlink.com 1.10,2013-04-16 13:18:00,
2013-04-16 09:33:00,64.6,55.0,30.25,SSE,167,2.0,5.0,72,0.00,,,0.00,weatherlink.com 1.10,2013-04-16 13:33:00,
2013-04-16 09:48:00,66.4,56.0,30.24,SSW,193,4.0,4.0,69,0.00,,,0.00,weatherlink.com 1.10,2013-04-16 13:48:00,
2013-04-16 10:03:00,67.9,56.0,30.24,SE,146,9.0,9.0,65,0.00,,,0.00,weatherlink.com 1.10,2013-04-16 14:03:00,
2013-04-16 10:18:00,68.3,56.0,30.24,SSW,211,3.0,13.0,64,0.00,,,0.00,weatherlink.com 1.10,2013-04-16 14:18:00,
2013-04-16 10:33:00,70.1,55.0,30.25,SW,219,5.0,8.0,60,0.00,,,0.00,weatherlink.com 1.10,2013-04-16 14:33:00,
2013-04-16 10:48:00,71.5,56.0,30.25,West,270,2.0,10.0,59,0.00,,,0.00,weatherlink.com 1.10,2013-04-16 14:48:00,
2013-04-16 11:03:00,72.3,58.0,30.25,SW,225,3.0,5.0,60,0.00,,,0.00,weatherlink.com 1.10,2013-04-16 15:03:00,
2013-04-16 11:18:00,73.3,58.0,30.25,SSE,166,4.0,9.0,59,0.00,,,0.00,weatherlink.com 1.10,2013-04-16 15:18:00,
2013-04-16 11:33:00,74.2,57.0,30.24,South,172,6.0,7.0,56,0.00,,,0.00,weatherlink.com 1.10,2013-04-16 15:33:00,
2013-04-16 11:48:00,75.0,59.0,30.23,WSW,257,1.0,8.0,57,0.00,,,0.00,weatherlink.com 1.10,2013-04-16 15:48:00,
2013-04-16 12:03:00,76.2,60.0,30.22,WNW,288,5.0,9.0,57,0.00,,,0.00,weatherlink.com 1.10,2013-04-16 16:03:00,
2013-04-16 12:18:00,77.2,59.0,30.22,South,191,8.0,9.0,53,0.00,,,0.00,weatherlink.com 1.10,2013-04-16 16:18:00,
2013-04-16 12:33:00,77.9,59.0,30.22,SSW,210,3.0,9.0,53,0.00,,,0.00,weatherlink.com 1.10,2013-04-16 16:33:00,
2013-04-16 12:48:00,77.7,58.0,30.21,SSE,149,2.0,12.0,51,0.00,,,0.00,weatherlink.com 1.10,2013-04-16 16:48:00,
2013-04-16 13:04:00,76.6,58.0,30.20,SSE,161,5.0,12.0,52,0.00,,,0.00,weatherlink.com 1.10,2013-04-16 17:04:00,
2013-04-16 13:18:00,77.4,57.0,30.20,ENE,71,6.0,7.0,50,0.00,,,0.00,weatherlink.com 1.10,2013-04-16 17:18:00,
2013-04-16 13:33:00,77.7,58.0,30.19,SW,217,6.0,12.0,50,0.00,,,0.00,weatherlink.com 1.10,2013-04-16 17:33:00,
2013-04-16 13:48:00,78.2,58.0,30.18,WSW,249,2.0,8.0,50,0.00,,,0.00,weatherlink.com 1.10,2013-04-16 17:48:00,
2013-04-16 14:03:00,78.2,58.0,30.18,North,6,1.0,6.0,50,0.00,,,0.00,weatherlink.com 1.10,2013-04-16 18:03:00,
2013-04-16 14:18:00,77.6,57.0,30.18,SSW,200,1.0,5.0,49,0.00,,,0.00,weatherlink.com 1.10,2013-04-16 18:18:00,
2013-04-16 14:34:00,78.8,56.0,30.17,SSE,149,2.0,9.0,45,0.00,,,0.00,weatherlink.com 1.10,2013-04-16 18:34:00,
2013-04-16 14:49:00,80.0,57.0,30.16,South,173,11.0,15.0,46,0.00,,,0.00,weatherlink.com 1.10,2013-04-16 18:49:00,
2013-04-16 15:04:00,79.9,57.0,30.16,SSW,193,2.0,11.0,45,0.00,,,0.00,weatherlink.com 1.10,2013-04-16 19:04:00,
2013-04-16 15:19:00,78.7,56.0,30.15,WSW,242,2.0,13.0,45,0.00,,,0.00,weatherlink.com 1.10,2013-04-16 19:19:00,
2013-04-16 15:49:00,79.5,56.0,30.14,SSW,204,3.0,9.0,44,0.00,,,0.00,weatherlink.com 1.10,2013-04-16 19:49:00,
2013-04-16 16:04:00,79.8,56.0,30.13,East,96,1.0,3.0,44,0.00,,,0.00,weatherlink.com 1.10,2013-04-16 20:04:00,
2013-04-16 16:19:00,81.5,56.0,30.12,SSE,162,9.0,13.0,41,0.00,,,0.00,weatherlink.com 1.10,2013-04-16 20:19:00,
2013-04-16 16:35:00,81.6,55.0,30.12,SW,224,2.0,12.0,40,0.00,,,0.00,weatherlink.com 1.10,2013-04-16 20:35:00,
2013-04-16 17:05:00,81.7,54.0,30.12,SSE,158,10.0,16.0,38,0.00,,,0.00,weatherlink.com 1.10,2013-04-16 21:05:00,
2013-04-16 17:19:00,81.9,52.0,30.11,SW,226,5.0,9.0,36,0.00,,,0.00,weatherlink.com 1.10,2013-04-16 21:19:00,
2013-04-16 17:34:00,81.4,53.0,30.11,South,179,3.0,16.0,37,0.00,,,0.00,weatherlink.com 1.10,2013-04-16 21:34:00,
2013-04-16 17:49:00,81.3,51.0,30.11,SSW,193,6.0,14.0,35,0.00,,,0.00,weatherlink.com 1.10,2013-04-16 21:49:00,
2013-04-16 18:04:00,81.2,52.0,30.11,SW,214,1.0,9.0,37,0.00,,,0.00,weatherlink.com 1.10,2013-04-16 22:04:00,
2013-04-16 18:19:00,80.7,52.0,30.11,SSW,192,2.0,9.0,37,0.00,,,0.00,weatherlink.com 1.10,2013-04-16 22:19:00,
2013-04-16 18:34:00,80.5,53.0,30.11,SSE,160,5.0,12.0,38,0.00,,,0.00,weatherlink.com 1.10,2013-04-16 22:34:00,
2013-04-16 18:49:00,80.0,53.0,30.11,SSW,210,5.0,12.0,39,0.00,,,0.00,weatherlink.com 1.10,2013-04-16 22:49:00,
2013-04-16 19:06:00,79.5,52.0,30.11,South,191,8.0,11.0,38,0.00,,,0.00,weatherlink.com 1.10,2013-04-16 23:06:00,
2013-04-16 19:19:00,79.1,53.0,30.10,South,170,3.0,10.0,40,0.00,,,0.00,weatherlink.com 1.10,2013-04-16 23:19:00,
2013-04-16 19:34:00,78.3,53.0,30.11,SSW,207,3.0,8.0,41,0.00,,,0.00,weatherlink.com 1.10,2013-04-16 23:34:00,
2013-04-16 19:49:00,77.0,53.0,30.11,SSW,211,1.0,8.0,44,0.00,,,0.00,weatherlink.com 1.10,2013-04-16 23:49:00,
2013-04-16 20:04:00,75.8,53.0,30.12,SSW,199,0.0,2.0,45,0.00,,,0.00,weatherlink.com 1.10,2013-04-17 00:04:00,
2013-04-16 20:19:00,74.7,53.0,30.12,SSE,167,0.0,2.0,47,0.00,,,0.00,weatherlink.com 1.10,2013-04-17 00:19:00,
2013-04-16 20:34:00,73.4,54.0,30.13,SW,217,1.0,5.0,50,0.00,,,0.00,weatherlink.com 1.10,2013-04-17 00:34:00,
2013-04-16 20:49:00,71.8,54.0,30.14,SW,217,0.0,0.0,53,0.00,,,0.00,weatherlink.com 1.10,2013-04-17 00:49:00,
2013-04-16 21:04:00,70.2,54.0,30.14,SW,217,0.0,1.0,56,0.00,,,0.00,weatherlink.com 1.10,2013-04-17 01:04:00,
2013-04-16 21:19:00,69.3,54.0,30.15,SW,217,0.0,0.0,58,0.00,,,0.00,weatherlink.com 1.10,2013-04-17 01:19:00,
2013-04-16 21:34:00,68.4,54.0,30.15,SW,217,0.0,0.0,60,0.00,,,0.00,weatherlink.com 1.10,2013-04-17 01:34:00,
2013-04-16 21:49:00,68.1,54.0,30.15,SW,217,0.0,1.0,60,0.00,,,0.00,weatherlink.com 1.10,2013-04-17 01:49:00,
2013-04-16 22:04:00,67.6,54.0,30.16,SW,217,0.0,1.0,61,0.00,,,0.00,weatherlink.com 1.10,2013-04-17 02:04:00,
2013-04-16 22:19:00,67.4,54.0,30.16,SSE,159,0.0,3.0,62,0.00,,,0.00,weatherlink.com 1.10,2013-04-17 02:19:00,
2013-04-16 22:34:00,67.9,54.0,30.16,SSE,160,0.0,1.0,61,0.00,,,0.00,weatherlink.com 1.10,2013-04-17 02:34:00,
2013-04-16 22:49:00,66.7,54.0,30.17,SSE,160,0.0,0.0,63,0.00,,,0.00,weatherlink.com 1.10,2013-04-17 02:49:00,
2013-04-16 23:04:00,66.6,54.0,30.16,SSE,160,0.0,0.0,64,0.00,,,0.00,weatherlink.com 1.10,2013-04-17 03:04:00,
2013-04-16 23:19:00,66.0,54.0,30.17,SSE,159,0.0,1.0,66,0.00,,,0.00,weatherlink.com 1.10,2013-04-17 03:19:00,
2013-04-16 23:34:00,65.6,55.0,30.17,NE,37,0.0,1.0,69,0.00,,,0.00,weatherlink.com 1.10,2013-04-17 03:34:00,